sensor_id;sensor_type;location;lat;lon;timestamp;P1;durP1;ratioP1;P2;durP2;ratioP2
77726;SDS011;68312;53.502;10.030;2023-03-11T00:00:40;13.50;;;8.05;;
77726;SDS011;68312;53.502;10.030;2023-03-11T00:03:10;15.63;;;8.10;;
77726;SDS011;68312;53.502;10.030;2023-03-11T00:05:41;16.05;;;8.50;;
77726;SDS011;68312;53.502;10.030;2023-03-11T00:08:17;16.73;;;8.85;;
77726;SDS011;68312;53.502;10.030;2023-03-11T00:10:52;16.90;;;8.88;;
77726;SDS011;68312;53.502;10.030;2023-03-11T00:13:22;15.05;;;8.15;;
77726;SDS011;68312;53.502;10.030;2023-03-11T00:15:49;14.27;;;7.85;;
77726;SDS011;68312;53.502;10.030;2023-03-11T00:18:22;17.90;;;9.63;;
77726;SDS011;68312;53.502;10.030;2023-03-11T00:20:52;20.27;;;9.60;;
77726;SDS011;68312;53.502;10.030;2023-03-11T00:23:20;18.38;;;8.85;;
77726;SDS011;68312;53.502;10.030;2023-03-11T00:25:46;17.90;;;9.88;;
77726;SDS011;68312;53.502;10.030;2023-03-11T00:28:12;14.55;;;7.75;;
77726;SDS011;68312;53.502;10.030;2023-03-11T00:30:40;14.07;;;7.97;;
77726;SDS011;68312;53.502;10.030;2023-03-11T00:33:09;18.95;;;9.25;;
77726;SDS011;68312;53.502;10.030;2023-03-11T00:35:38;18.52;;;9.13;;
77726;SDS011;68312;53.502;10.030;2023-03-11T00:38:06;18.67;;;9.35;;
77726;SDS011;68312;53.502;10.030;2023-03-11T00:40:37;21.25;;;10.32;;
77726;SDS011;68312;53.502;10.030;2023-03-11T00:43:03;17.23;;;8.45;;
77726;SDS011;68312;53.502;10.030;2023-03-11T00:45:29;20.70;;;9.65;;
77726;SDS011;68312;53.502;10.030;2023-03-11T00:47:56;18.70;;;8.70;;
77726;SDS011;68312;53.502;10.030;2023-03-11T00:50:23;20.45;;;10.10;;
77726;SDS011;68312;53.502;10.030;2023-03-11T00:52:54;19.38;;;9.35;;
77726;SDS011;68312;53.502;10.030;2023-03-11T00:55:22;23.17;;;9.65;;
77726;SDS011;68312;53.502;10.030;2023-03-11T00:57:57;21.92;;;10.10;;
77726;SDS011;68312;53.502;10.030;2023-03-11T01:00:30;19.58;;;10.27;;
77726;SDS011;68312;53.502;10.030;2023-03-11T01:02:58;18.33;;;9.65;;
77726;SDS011;68312;53.502;10.030;2023-03-11T01:05:25;20.38;;;9.48;;
77726;SDS011;68312;53.502;10.030;2023-03-11T01:07:56;17.90;;;10.40;;
77726;SDS011;68312;53.502;10.030;2023-03-11T01:10:23;19.50;;;9.55;;
77726;SDS011;68312;53.502;10.030;2023-03-11T01:12:49;17.55;;;8.88;;
77726;SDS011;68312;53.502;10.030;2023-03-11T01:15:20;16.55;;;9.38;;
77726;SDS011;68312;53.502;10.030;2023-03-11T01:17:54;21.30;;;10.15;;
77726;SDS011;68312;53.502;10.030;2023-03-11T01:20:19;16.33;;;8.02;;
77726;SDS011;68312;53.502;10.030;2023-03-11T01:22:45;20.88;;;9.95;;
77726;SDS011;68312;53.502;10.030;2023-03-11T01:25:12;19.02;;;10.18;;
77726;SDS011;68312;53.502;10.030;2023-03-11T01:27:41;15.30;;;8.52;;
77726;SDS011;68312;53.502;10.030;2023-03-11T01:30:08;18.45;;;8.48;;
77726;SDS011;68312;53.502;10.030;2023-03-11T01:32:40;15.90;;;9.05;;
77726;SDS011;68312;53.502;10.030;2023-03-11T01:35:06;17.50;;;8.63;;
77726;SDS011;68312;53.502;10.030;2023-03-11T01:37:34;22.63;;;10.73;;
77726;SDS011;68312;53.502;10.030;2023-03-11T01:39:59;18.98;;;9.65;;
77726;SDS011;68312;53.502;10.030;2023-03-11T01:42:25;17.42;;;8.55;;
77726;SDS011;68312;53.502;10.030;2023-03-11T01:44:50;18.55;;;9.20;;
77726;SDS011;68312;53.502;10.030;2023-03-11T01:47:31;18.00;;;9.50;;
77726;SDS011;68312;53.502;10.030;2023-03-11T01:50:04;15.48;;;8.13;;
77726;SDS011;68312;53.502;10.030;2023-03-11T01:52:37;16.63;;;9.85;;
77726;SDS011;68312;53.502;10.030;2023-03-11T01:55:03;17.52;;;8.98;;
77726;SDS011;68312;53.502;10.030;2023-03-11T01:57:30;19.63;;;9.05;;
77726;SDS011;68312;53.502;10.030;2023-03-11T01:59:57;14.40;;;8.23;;
77726;SDS011;68312;53.502;10.030;2023-03-11T02:02:39;20.48;;;9.00;;
77726;SDS011;68312;53.502;10.030;2023-03-11T02:05:12;23.27;;;9.52;;
77726;SDS011;68312;53.502;10.030;2023-03-11T02:07:38;19.65;;;9.07;;
77726;SDS011;68312;53.502;10.030;2023-03-11T02:10:05;18.20;;;8.57;;
77726;SDS011;68312;53.502;10.030;2023-03-11T02:12:34;14.52;;;7.20;;
77726;SDS011;68312;53.502;10.030;2023-03-11T02:15:02;17.67;;;8.57;;
77726;SDS011;68312;53.502;10.030;2023-03-11T02:17:31;13.55;;;7.28;;
77726;SDS011;68312;53.502;10.030;2023-03-11T02:23:13;18.02;;;8.77;;
77726;SDS011;68312;53.502;10.030;2023-03-11T02:28:13;15.98;;;9.27;;
77726;SDS011;68312;53.502;10.030;2023-03-11T02:30:43;18.15;;;8.80;;
77726;SDS011;68312;53.502;10.030;2023-03-11T02:33:12;16.25;;;8.18;;
77726;SDS011;68312;53.502;10.030;2023-03-11T02:35:42;14.07;;;7.82;;
77726;SDS011;68312;53.502;10.030;2023-03-11T02:38:07;19.00;;;9.05;;
77726;SDS011;68312;53.502;10.030;2023-03-11T02:43:15;15.63;;;7.95;;
77726;SDS011;68312;53.502;10.030;2023-03-11T02:45:49;21.65;;;9.32;;
77726;SDS011;68312;53.502;10.030;2023-03-11T02:48:15;20.17;;;8.57;;
77726;SDS011;68312;53.502;10.030;2023-03-11T02:50:43;18.63;;;8.15;;
77726;SDS011;68312;53.502;10.030;2023-03-11T02:53:14;16.58;;;8.65;;
77726;SDS011;68312;53.502;10.030;2023-03-11T02:55:40;13.30;;;7.75;;
77726;SDS011;68312;53.502;10.030;2023-03-11T02:58:05;19.63;;;8.10;;
77726;SDS011;68312;53.502;10.030;2023-03-11T03:00:31;13.85;;;7.55;;
77726;SDS011;68312;53.502;10.030;2023-03-11T03:02:58;14.07;;;7.70;;
77726;SDS011;68312;53.502;10.030;2023-03-11T03:05:23;14.23;;;8.50;;
77726;SDS011;68312;53.502;10.030;2023-03-11T03:07:49;18.40;;;9.15;;
77726;SDS011;68312;53.502;10.030;2023-03-11T03:10:16;13.88;;;7.70;;
77726;SDS011;68312;53.502;10.030;2023-03-11T03:12:45;16.73;;;8.20;;
77726;SDS011;68312;53.502;10.030;2023-03-11T03:15:10;17.35;;;8.95;;
77726;SDS011;68312;53.502;10.030;2023-03-11T03:17:37;15.82;;;7.90;;
77726;SDS011;68312;53.502;10.030;2023-03-11T03:20:03;17.25;;;8.45;;
77726;SDS011;68312;53.502;10.030;2023-03-11T03:22:35;17.40;;;7.97;;
77726;SDS011;68312;53.502;10.030;2023-03-11T03:25:02;19.10;;;8.63;;
77726;SDS011;68312;53.502;10.030;2023-03-11T03:27:27;17.27;;;8.38;;
77726;SDS011;68312;53.502;10.030;2023-03-11T03:29:56;15.65;;;7.15;;
77726;SDS011;68312;53.502;10.030;2023-03-11T03:32:22;14.70;;;7.45;;
77726;SDS011;68312;53.502;10.030;2023-03-11T03:34:47;16.00;;;7.40;;
77726;SDS011;68312;53.502;10.030;2023-03-11T03:37:13;14.00;;;6.60;;
77726;SDS011;68312;53.502;10.030;2023-03-11T03:39:38;14.75;;;8.35;;
77726;SDS011;68312;53.502;10.030;2023-03-11T03:42:04;15.20;;;7.55;;
77726;SDS011;68312;53.502;10.030;2023-03-11T03:44:29;17.85;;;7.55;;
77726;SDS011;68312;53.502;10.030;2023-03-11T03:46:55;13.35;;;7.38;;
77726;SDS011;68312;53.502;10.030;2023-03-11T03:49:20;14.52;;;7.53;;
77726;SDS011;68312;53.502;10.030;2023-03-11T03:51:46;13.55;;;7.45;;
77726;SDS011;68312;53.502;10.030;2023-03-11T03:54:11;14.93;;;7.82;;
77726;SDS011;68312;53.502;10.030;2023-03-11T03:56:37;15.35;;;8.13;;
77726;SDS011;68312;53.502;10.030;2023-03-11T03:59:03;12.40;;;6.28;;
77726;SDS011;68312;53.502;10.030;2023-03-11T04:01:28;15.48;;;8.15;;
77726;SDS011;68312;53.502;10.030;2023-03-11T04:03:54;11.65;;;6.47;;
77726;SDS011;68312;53.502;10.030;2023-03-11T04:06:20;15.60;;;7.57;;
77726;SDS011;68312;53.502;10.030;2023-03-11T04:08:50;16.35;;;7.53;;
77726;SDS011;68312;53.502;10.030;2023-03-11T04:11:18;17.42;;;7.95;;
77726;SDS011;68312;53.502;10.030;2023-03-11T04:13:44;14.77;;;8.30;;
77726;SDS011;68312;53.502;10.030;2023-03-11T04:16:17;15.35;;;7.57;;
77726;SDS011;68312;53.502;10.030;2023-03-11T04:18:47;14.00;;;6.93;;
77726;SDS011;68312;53.502;10.030;2023-03-11T04:21:13;11.93;;;6.45;;
77726;SDS011;68312;53.502;10.030;2023-03-11T04:23:39;13.20;;;6.97;;
77726;SDS011;68312;53.502;10.030;2023-03-11T04:26:05;12.05;;;6.25;;
77726;SDS011;68312;53.502;10.030;2023-03-11T04:28:33;13.95;;;7.30;;
77726;SDS011;68312;53.502;10.030;2023-03-11T04:30:59;12.75;;;6.75;;
77726;SDS011;68312;53.502;10.030;2023-03-11T04:33:24;11.65;;;6.57;;
77726;SDS011;68312;53.502;10.030;2023-03-11T04:35:50;11.73;;;7.05;;
77726;SDS011;68312;53.502;10.030;2023-03-11T04:38:15;12.30;;;6.45;;
77726;SDS011;68312;53.502;10.030;2023-03-11T04:40:44;12.68;;;6.30;;
77726;SDS011;68312;53.502;10.030;2023-03-11T04:43:13;14.23;;;7.05;;
77726;SDS011;68312;53.502;10.030;2023-03-11T04:45:38;18.63;;;7.97;;
77726;SDS011;68312;53.502;10.030;2023-03-11T04:48:06;12.50;;;6.68;;
77726;SDS011;68312;53.502;10.030;2023-03-11T04:50:32;13.75;;;6.18;;
77726;SDS011;68312;53.502;10.030;2023-03-11T04:52:58;13.63;;;7.30;;
77726;SDS011;68312;53.502;10.030;2023-03-11T04:55:23;15.98;;;7.53;;
77726;SDS011;68312;53.502;10.030;2023-03-11T04:57:49;12.70;;;7.22;;
77726;SDS011;68312;53.502;10.030;2023-03-11T05:00:15;15.25;;;6.63;;
77726;SDS011;68312;53.502;10.030;2023-03-11T05:02:44;12.23;;;5.47;;
77726;SDS011;68312;53.502;10.030;2023-03-11T05:05:09;16.15;;;7.68;;
77726;SDS011;68312;53.502;10.030;2023-03-11T05:07:35;12.30;;;7.10;;
77726;SDS011;68312;53.502;10.030;2023-03-11T05:10:02;14.55;;;7.05;;
77726;SDS011;68312;53.502;10.030;2023-03-11T05:12:29;11.43;;;6.03;;
77726;SDS011;68312;53.502;10.030;2023-03-11T05:14:56;17.27;;;8.38;;
77726;SDS011;68312;53.502;10.030;2023-03-11T05:17:22;14.73;;;6.90;;
77726;SDS011;68312;53.502;10.030;2023-03-11T05:19:48;14.20;;;7.63;;
77726;SDS011;68312;53.502;10.030;2023-03-11T05:22:15;17.48;;;7.60;;
77726;SDS011;68312;53.502;10.030;2023-03-11T05:24:41;12.40;;;7.13;;
77726;SDS011;68312;53.502;10.030;2023-03-11T05:27:06;14.20;;;7.22;;
77726;SDS011;68312;53.502;10.030;2023-03-11T05:29:32;14.95;;;7.18;;
77726;SDS011;68312;53.502;10.030;2023-03-11T05:31:57;13.98;;;6.40;;
77726;SDS011;68312;53.502;10.030;2023-03-11T05:34:23;14.40;;;6.10;;
77726;SDS011;68312;53.502;10.030;2023-03-11T05:36:48;14.70;;;6.97;;
77726;SDS011;68312;53.502;10.030;2023-03-11T05:39:14;14.30;;;6.57;;
77726;SDS011;68312;53.502;10.030;2023-03-11T05:41:39;17.35;;;7.43;;
77726;SDS011;68312;53.502;10.030;2023-03-11T05:44:06;11.30;;;6.20;;
77726;SDS011;68312;53.502;10.030;2023-03-11T05:46:31;12.10;;;6.43;;
77726;SDS011;68312;53.502;10.030;2023-03-11T05:48:58;10.90;;;6.20;;
77726;SDS011;68312;53.502;10.030;2023-03-11T05:51:24;13.68;;;6.50;;
77726;SDS011;68312;53.502;10.030;2023-03-11T05:53:49;12.77;;;7.25;;
77726;SDS011;68312;53.502;10.030;2023-03-11T05:56:16;13.10;;;6.43;;
77726;SDS011;68312;53.502;10.030;2023-03-11T05:58:45;13.98;;;7.38;;
77726;SDS011;68312;53.502;10.030;2023-03-11T06:01:14;13.57;;;6.05;;
77726;SDS011;68312;53.502;10.030;2023-03-11T06:03:43;11.50;;;5.47;;
77726;SDS011;68312;53.502;10.030;2023-03-11T06:06:12;10.18;;;6.00;;
77726;SDS011;68312;53.502;10.030;2023-03-11T06:08:38;12.95;;;6.35;;
77726;SDS011;68312;53.502;10.030;2023-03-11T06:11:07;11.85;;;6.47;;
77726;SDS011;68312;53.502;10.030;2023-03-11T06:13:35;12.10;;;5.97;;
77726;SDS011;68312;53.502;10.030;2023-03-11T06:16:02;11.05;;;6.45;;
77726;SDS011;68312;53.502;10.030;2023-03-11T06:18:29;11.90;;;6.32;;
77726;SDS011;68312;53.502;10.030;2023-03-11T06:20:58;11.10;;;5.63;;
77726;SDS011;68312;53.502;10.030;2023-03-11T06:23:25;14.75;;;6.90;;
77726;SDS011;68312;53.502;10.030;2023-03-11T06:28:29;10.93;;;5.63;;
77726;SDS011;68312;53.502;10.030;2023-03-11T06:30:56;12.48;;;5.75;;
77726;SDS011;68312;53.502;10.030;2023-03-11T06:33:33;10.40;;;5.32;;
77726;SDS011;68312;53.502;10.030;2023-03-11T06:35:59;11.18;;;5.53;;
77726;SDS011;68312;53.502;10.030;2023-03-11T06:38:30;11.93;;;5.63;;
77726;SDS011;68312;53.502;10.030;2023-03-11T06:41:03;9.75;;;5.40;;
77726;SDS011;68312;53.502;10.030;2023-03-11T06:43:31;10.40;;;5.85;;
77726;SDS011;68312;53.502;10.030;2023-03-11T06:45:59;10.32;;;5.45;;
77726;SDS011;68312;53.502;10.030;2023-03-11T06:48:26;14.02;;;6.10;;
77726;SDS011;68312;53.502;10.030;2023-03-11T06:50:53;10.25;;;5.50;;
77726;SDS011;68312;53.502;10.030;2023-03-11T06:53:24;10.63;;;5.70;;
77726;SDS011;68312;53.502;10.030;2023-03-11T06:55:59;10.55;;;5.55;;
77726;SDS011;68312;53.502;10.030;2023-03-11T07:01:06;12.50;;;5.70;;
77726;SDS011;68312;53.502;10.030;2023-03-11T07:03:36;10.90;;;4.93;;
77726;SDS011;68312;53.502;10.030;2023-03-11T07:06:04;12.27;;;5.18;;
77726;SDS011;68312;53.502;10.030;2023-03-11T07:08:36;8.52;;;4.18;;
77726;SDS011;68312;53.502;10.030;2023-03-11T07:11:09;9.55;;;4.68;;
77726;SDS011;68312;53.502;10.030;2023-03-11T07:13:41;8.35;;;4.70;;
77726;SDS011;68312;53.502;10.030;2023-03-11T07:16:12;9.25;;;4.70;;
77726;SDS011;68312;53.502;10.030;2023-03-11T07:18:50;11.18;;;5.13;;
77726;SDS011;68312;53.502;10.030;2023-03-11T07:21:20;10.88;;;5.55;;
77726;SDS011;68312;53.502;10.030;2023-03-11T07:23:50;11.13;;;5.15;;
77726;SDS011;68312;53.502;10.030;2023-03-11T07:26:22;9.63;;;4.80;;
77726;SDS011;68312;53.502;10.030;2023-03-11T07:28:49;10.05;;;4.97;;
77726;SDS011;68312;53.502;10.030;2023-03-11T07:31:17;10.80;;;5.32;;
77726;SDS011;68312;53.502;10.030;2023-03-11T07:33:58;11.38;;;5.10;;
77726;SDS011;68312;53.502;10.030;2023-03-11T07:36:28;8.73;;;4.90;;
77726;SDS011;68312;53.502;10.030;2023-03-11T07:38:59;8.68;;;5.35;;
77726;SDS011;68312;53.502;10.030;2023-03-11T07:41:30;10.57;;;4.85;;
77726;SDS011;68312;53.502;10.030;2023-03-11T07:44:02;7.85;;;4.43;;
77726;SDS011;68312;53.502;10.030;2023-03-11T07:46:29;9.88;;;5.07;;
77726;SDS011;68312;53.502;10.030;2023-03-11T07:48:55;10.40;;;4.93;;
77726;SDS011;68312;53.502;10.030;2023-03-11T07:51:22;8.77;;;4.50;;
77726;SDS011;68312;53.502;10.030;2023-03-11T07:53:53;11.82;;;5.68;;
77726;SDS011;68312;53.502;10.030;2023-03-11T07:56:22;9.40;;;5.03;;
77726;SDS011;68312;53.502;10.030;2023-03-11T07:58:52;8.88;;;4.45;;
77726;SDS011;68312;53.502;10.030;2023-03-11T08:01:19;8.57;;;4.60;;
77726;SDS011;68312;53.502;10.030;2023-03-11T08:03:52;6.78;;;3.97;;
77726;SDS011;68312;53.502;10.030;2023-03-11T08:06:24;7.72;;;4.57;;
77726;SDS011;68312;53.502;10.030;2023-03-11T08:08:55;8.23;;;3.65;;
77726;SDS011;68312;53.502;10.030;2023-03-11T08:11:22;10.57;;;3.85;;
77726;SDS011;68312;53.502;10.030;2023-03-11T08:13:49;7.25;;;4.32;;
77726;SDS011;68312;53.502;10.030;2023-03-11T08:16:16;9.95;;;4.47;;
77726;SDS011;68312;53.502;10.030;2023-03-11T08:18:46;6.68;;;4.07;;
77726;SDS011;68312;53.502;10.030;2023-03-11T08:21:15;9.10;;;4.25;;
77726;SDS011;68312;53.502;10.030;2023-03-11T08:23:46;8.68;;;5.20;;
77726;SDS011;68312;53.502;10.030;2023-03-11T08:26:14;8.45;;;4.38;;
77726;SDS011;68312;53.502;10.030;2023-03-11T08:28:45;10.30;;;4.03;;
77726;SDS011;68312;53.502;10.030;2023-03-11T08:31:17;8.40;;;3.65;;
77726;SDS011;68312;53.502;10.030;2023-03-11T08:33:48;6.30;;;4.00;;
77726;SDS011;68312;53.502;10.030;2023-03-11T08:36:22;6.70;;;3.00;;
77726;SDS011;68312;53.502;10.030;2023-03-11T08:38:48;9.23;;;4.03;;
77726;SDS011;68312;53.502;10.030;2023-03-11T08:41:14;6.13;;;3.42;;
77726;SDS011;68312;53.502;10.030;2023-03-11T08:43:40;8.98;;;3.80;;
77726;SDS011;68312;53.502;10.030;2023-03-11T08:46:07;5.35;;;3.25;;
77726;SDS011;68312;53.502;10.030;2023-03-11T08:48:32;10.45;;;3.10;;
77726;SDS011;68312;53.502;10.030;2023-03-11T08:51:01;4.82;;;2.78;;
77726;SDS011;68312;53.502;10.030;2023-03-11T08:53:36;4.60;;;2.60;;
77726;SDS011;68312;53.502;10.030;2023-03-11T08:56:03;7.15;;;2.85;;
77726;SDS011;68312;53.502;10.030;2023-03-11T08:58:29;4.57;;;2.40;;
77726;SDS011;68312;53.502;10.030;2023-03-11T09:00:55;5.15;;;2.50;;
77726;SDS011;68312;53.502;10.030;2023-03-11T09:03:21;5.15;;;2.58;;
77726;SDS011;68312;53.502;10.030;2023-03-11T09:05:47;4.55;;;2.40;;
77726;SDS011;68312;53.502;10.030;2023-03-11T09:08:13;6.15;;;2.70;;
77726;SDS011;68312;53.502;10.030;2023-03-11T09:10:41;7.00;;;2.58;;
77726;SDS011;68312;53.502;10.030;2023-03-11T09:13:07;4.43;;;2.08;;
77726;SDS011;68312;53.502;10.030;2023-03-11T09:15:32;4.75;;;2.25;;
77726;SDS011;68312;53.502;10.030;2023-03-11T09:18:01;5.35;;;1.85;;
77726;SDS011;68312;53.502;10.030;2023-03-11T09:20:27;5.07;;;2.40;;
77726;SDS011;68312;53.502;10.030;2023-03-11T09:22:53;3.15;;;1.88;;
77726;SDS011;68312;53.502;10.030;2023-03-11T09:25:18;3.88;;;2.10;;
77726;SDS011;68312;53.502;10.030;2023-03-11T09:27:44;3.78;;;1.85;;
77726;SDS011;68312;53.502;10.030;2023-03-11T09:30:09;7.25;;;2.35;;
77726;SDS011;68312;53.502;10.030;2023-03-11T09:32:36;3.83;;;1.88;;
77726;SDS011;68312;53.502;10.030;2023-03-11T09:35:01;2.83;;;1.48;;
77726;SDS011;68312;53.502;10.030;2023-03-11T09:37:27;2.42;;;1.35;;
77726;SDS011;68312;53.502;10.030;2023-03-11T09:39:54;3.92;;;1.80;;
77726;SDS011;68312;53.502;10.030;2023-03-11T09:45:27;3.90;;;1.40;;
77726;SDS011;68312;53.502;10.030;2023-03-11T09:50:59;5.45;;;2.65;;
77726;SDS011;68312;53.502;10.030;2023-03-11T09:53:43;4.10;;;2.58;;
77726;SDS011;68312;53.502;10.030;2023-03-11T09:56:15;5.85;;;2.50;;
77726;SDS011;68312;53.502;10.030;2023-03-11T09:58:47;6.05;;;2.60;;
77726;SDS011;68312;53.502;10.030;2023-03-11T10:07:05;6.53;;;2.80;;
77726;SDS011;68312;53.502;10.030;2023-03-11T10:09:55;7.30;;;2.75;;
77726;SDS011;68312;53.502;10.030;2023-03-11T10:12:36;5.20;;;2.45;;
77726;SDS011;68312;53.502;10.030;2023-03-11T10:18:19;5.68;;;2.45;;
77726;SDS011;68312;53.502;10.030;2023-03-11T10:25:29;5.72;;;2.80;;
77726;SDS011;68312;53.502;10.030;2023-03-11T10:28:11;7.97;;;3.65;;
77726;SDS011;68312;53.502;10.030;2023-03-11T10:30:57;5.30;;;2.20;;
77726;SDS011;68312;53.502;10.030;2023-03-11T10:33:58;4.47;;;2.25;;
77726;SDS011;68312;53.502;10.030;2023-03-11T10:36:41;5.10;;;2.10;;
77726;SDS011;68312;53.502;10.030;2023-03-11T10:39:27;5.45;;;1.88;;
77726;SDS011;68312;53.502;10.030;2023-03-11T10:42:00;3.58;;;2.15;;
77726;SDS011;68312;53.502;10.030;2023-03-11T10:44:33;4.57;;;2.20;;
77726;SDS011;68312;53.502;10.030;2023-03-11T10:47:06;5.30;;;2.17;;
77726;SDS011;68312;53.502;10.030;2023-03-11T10:49:43;4.40;;;2.22;;
77726;SDS011;68312;53.502;10.030;2023-03-11T10:52:09;4.63;;;1.85;;
77726;SDS011;68312;53.502;10.030;2023-03-11T10:54:37;4.28;;;1.63;;
77726;SDS011;68312;53.502;10.030;2023-03-11T10:57:23;5.72;;;2.08;;
77726;SDS011;68312;53.502;10.030;2023-03-11T10:59:57;5.28;;;1.98;;
77726;SDS011;68312;53.502;10.030;2023-03-11T11:10:57;5.97;;;2.30;;
77726;SDS011;68312;53.502;10.030;2023-03-11T11:13:28;3.50;;;2.03;;
77726;SDS011;68312;53.502;10.030;2023-03-11T11:16:05;7.50;;;2.47;;
77726;SDS011;68312;53.502;10.030;2023-03-11T11:18:45;2.90;;;1.75;;
77726;SDS011;68312;53.502;10.030;2023-03-11T11:21:27;4.45;;;2.03;;
77726;SDS011;68312;53.502;10.030;2023-03-11T11:30:18;5.18;;;2.72;;
77726;SDS011;68312;53.502;10.030;2023-03-11T11:32:46;10.57;;;2.03;;
77726;SDS011;68312;53.502;10.030;2023-03-11T11:35:13;5.05;;;2.10;;
77726;SDS011;68312;53.502;10.030;2023-03-11T11:37:43;4.18;;;1.98;;
77726;SDS011;68312;53.502;10.030;2023-03-11T11:40:22;3.53;;;1.58;;
77726;SDS011;68312;53.502;10.030;2023-03-11T11:43:09;5.72;;;1.77;;
77726;SDS011;68312;53.502;10.030;2023-03-11T11:45:48;6.18;;;2.17;;
77726;SDS011;68312;53.502;10.030;2023-03-11T11:49:07;6.30;;;2.13;;
77726;SDS011;68312;53.502;10.030;2023-03-11T11:54:47;5.57;;;1.85;;
77726;SDS011;68312;53.502;10.030;2023-03-11T11:57:21;3.53;;;1.73;;
77726;SDS011;68312;53.502;10.030;2023-03-11T11:59:48;3.63;;;1.50;;
77726;SDS011;68312;53.502;10.030;2023-03-11T12:05:15;3.63;;;1.40;;
77726;SDS011;68312;53.502;10.030;2023-03-11T12:10:45;6.40;;;1.48;;
77726;SDS011;68312;53.502;10.030;2023-03-11T12:13:44;3.30;;;0.95;;
77726;SDS011;68312;53.502;10.030;2023-03-11T12:22:49;4.72;;;1.10;;
77726;SDS011;68312;53.502;10.030;2023-03-11T12:28:47;2.50;;;0.93;;
77726;SDS011;68312;53.502;10.030;2023-03-11T12:31:25;4.22;;;1.40;;
77726;SDS011;68312;53.502;10.030;2023-03-11T12:33:59;3.72;;;1.83;;
77726;SDS011;68312;53.502;10.030;2023-03-11T12:36:35;3.60;;;1.50;;
77726;SDS011;68312;53.502;10.030;2023-03-11T12:39:06;3.22;;;1.50;;
77726;SDS011;68312;53.502;10.030;2023-03-11T12:44:36;4.05;;;1.30;;
77726;SDS011;68312;53.502;10.030;2023-03-11T12:47:21;3.42;;;1.27;;
77726;SDS011;68312;53.502;10.030;2023-03-11T12:49:53;5.40;;;1.40;;
77726;SDS011;68312;53.502;10.030;2023-03-11T12:53:02;3.60;;;1.33;;
77726;SDS011;68312;53.502;10.030;2023-03-11T12:55:32;4.50;;;1.33;;
77726;SDS011;68312;53.502;10.030;2023-03-11T13:10:34;5.50;;;1.20;;
77726;SDS011;68312;53.502;10.030;2023-03-11T13:18:36;4.85;;;1.33;;
77726;SDS011;68312;53.502;10.030;2023-03-11T13:21:02;4.38;;;1.30;;
77726;SDS011;68312;53.502;10.030;2023-03-11T13:23:48;4.63;;;1.33;;
77726;SDS011;68312;53.502;10.030;2023-03-11T13:26:34;3.78;;;1.10;;
77726;SDS011;68312;53.502;10.030;2023-03-11T13:32:48;4.20;;;1.40;;
77726;SDS011;68312;53.502;10.030;2023-03-11T13:35:53;2.95;;;1.10;;
77726;SDS011;68312;53.502;10.030;2023-03-11T13:39:13;8.48;;;1.58;;
77726;SDS011;68312;53.502;10.030;2023-03-11T13:42:01;6.55;;;1.40;;
77726;SDS011;68312;53.502;10.030;2023-03-11T13:44:34;2.92;;;1.02;;
77726;SDS011;68312;53.502;10.030;2023-03-11T13:47:06;3.70;;;1.40;;
77726;SDS011;68312;53.502;10.030;2023-03-11T13:52:32;5.13;;;1.00;;
77726;SDS011;68312;53.502;10.030;2023-03-11T13:55:13;3.60;;;1.05;;
77726;SDS011;68312;53.502;10.030;2023-03-11T13:57:55;4.97;;;1.13;;
77726;SDS011;68312;53.502;10.030;2023-03-11T14:00:25;11.38;;;1.35;;
77726;SDS011;68312;53.502;10.030;2023-03-11T14:02:58;2.40;;;0.93;;
77726;SDS011;68312;53.502;10.030;2023-03-11T14:05:36;1.83;;;0.88;;
77726;SDS011;68312;53.502;10.030;2023-03-11T14:08:21;8.50;;;1.55;;
77726;SDS011;68312;53.502;10.030;2023-03-11T14:13:45;4.72;;;1.08;;
77726;SDS011;68312;53.502;10.030;2023-03-11T14:16:15;2.65;;;1.00;;
77726;SDS011;68312;53.502;10.030;2023-03-11T14:21:42;7.75;;;1.35;;
77726;SDS011;68312;53.502;10.030;2023-03-11T14:24:17;3.55;;;1.10;;
77726;SDS011;68312;53.502;10.030;2023-03-11T14:27:06;2.05;;;1.00;;
77726;SDS011;68312;53.502;10.030;2023-03-11T14:29:37;7.72;;;1.30;;
77726;SDS011;68312;53.502;10.030;2023-03-11T14:32:14;2.35;;;1.00;;
77726;SDS011;68312;53.502;10.030;2023-03-11T14:35:15;6.07;;;0.90;;
77726;SDS011;68312;53.502;10.030;2023-03-11T14:37:47;2.57;;;0.63;;
77726;SDS011;68312;53.502;10.030;2023-03-11T14:40:23;4.68;;;1.10;;
77726;SDS011;68312;53.502;10.030;2023-03-11T14:42:53;2.72;;;1.00;;
77726;SDS011;68312;53.502;10.030;2023-03-11T14:45:27;2.25;;;0.98;;
77726;SDS011;68312;53.502;10.030;2023-03-11T14:47:59;3.42;;;0.77;;
77726;SDS011;68312;53.502;10.030;2023-03-11T14:50:40;4.32;;;0.93;;
77726;SDS011;68312;53.502;10.030;2023-03-11T14:53:17;2.95;;;0.70;;
77726;SDS011;68312;53.502;10.030;2023-03-11T14:55:57;1.70;;;0.57;;
77726;SDS011;68312;53.502;10.030;2023-03-11T14:58:33;1.98;;;0.80;;
77726;SDS011;68312;53.502;10.030;2023-03-11T15:01:31;1.67;;;0.63;;
77726;SDS011;68312;53.502;10.030;2023-03-11T15:07:03;1.40;;;0.63;;
77726;SDS011;68312;53.502;10.030;2023-03-11T15:09:30;1.75;;;0.80;;
77726;SDS011;68312;53.502;10.030;2023-03-11T15:12:00;4.13;;;1.00;;
77726;SDS011;68312;53.502;10.030;2023-03-11T15:14:29;3.72;;;1.10;;
77726;SDS011;68312;53.502;10.030;2023-03-11T15:17:12;1.88;;;0.80;;
77726;SDS011;68312;53.502;10.030;2023-03-11T15:19:52;5.32;;;1.30;;
77726;SDS011;68312;53.502;10.030;2023-03-11T15:22:23;4.93;;;1.13;;
77726;SDS011;68312;53.502;10.030;2023-03-11T15:25:24;2.75;;;0.95;;
77726;SDS011;68312;53.502;10.030;2023-03-11T15:27:53;2.72;;;0.70;;
77726;SDS011;68312;53.502;10.030;2023-03-11T15:32:47;2.25;;;1.00;;
77726;SDS011;68312;53.502;10.030;2023-03-11T15:35:15;2.92;;;0.80;;
77726;SDS011;68312;53.502;10.030;2023-03-11T15:43:27;2.90;;;1.10;;
77726;SDS011;68312;53.502;10.030;2023-03-11T15:46:09;2.75;;;1.25;;
77726;SDS011;68312;53.502;10.030;2023-03-11T15:48:35;7.65;;;1.10;;
77726;SDS011;68312;53.502;10.030;2023-03-11T15:51:00;5.03;;;1.13;;
77726;SDS011;68312;53.502;10.030;2023-03-11T15:53:27;4.75;;;1.02;;
77726;SDS011;68312;53.502;10.030;2023-03-11T15:55:58;4.82;;;1.10;;
77726;SDS011;68312;53.502;10.030;2023-03-11T15:58:37;3.77;;;1.07;;
77726;SDS011;68312;53.502;10.030;2023-03-11T16:01:03;3.75;;;0.93;;
77726;SDS011;68312;53.502;10.030;2023-03-11T16:03:29;5.35;;;1.10;;
77726;SDS011;68312;53.502;10.030;2023-03-11T16:05:54;2.20;;;0.82;;
77726;SDS011;68312;53.502;10.030;2023-03-11T16:08:20;12.75;;;4.65;;
77726;SDS011;68312;53.502;10.030;2023-03-11T16:10:45;25.20;;;9.38;;
77726;SDS011;68312;53.502;10.030;2023-03-11T16:13:11;12.35;;;8.40;;
77726;SDS011;68312;53.502;10.030;2023-03-11T16:15:39;4.15;;;1.80;;
77726;SDS011;68312;53.502;10.030;2023-03-11T16:18:06;8.10;;;1.20;;
77726;SDS011;68312;53.502;10.030;2023-03-11T16:20:38;4.88;;;1.73;;
77726;SDS011;68312;53.502;10.030;2023-03-11T16:23:42;18.83;;;8.70;;
77726;SDS011;68312;53.502;10.030;2023-03-11T16:26:02;4.50;;;2.00;;
77726;SDS011;68312;53.502;10.030;2023-03-11T16:28:30;10.18;;;4.90;;
77726;SDS011;68312;53.502;10.030;2023-03-11T16:30:55;4.50;;;2.47;;
77726;SDS011;68312;53.502;10.030;2023-03-11T16:33:21;8.35;;;3.47;;
77726;SDS011;68312;53.502;10.030;2023-03-11T16:35:47;6.07;;;2.53;;
77726;SDS011;68312;53.502;10.030;2023-03-11T16:38:13;7.45;;;1.80;;
77726;SDS011;68312;53.502;10.030;2023-03-11T16:40:41;5.85;;;1.90;;